KPHT/PHT METAR and TAF weather

Enter ICAO airport designator
Station Type Date Time Source
KPHT METAR 2022/01/26 14:55 UTC NOAA

KPHT 261455Z AUTO 04010KT 10SM CLR M07/M15 A3053 RMK A01


Station Type Date Time Source
KPHT Decoded METAR 2022/01/26 14:55 UTC NOAA

Station name not available
Jan 26, 2022 - 09:55 AM EST / 2022.01.26 1455 UTC
Wind: from the NE (040 degrees) at 12 MPH (10 KT):0
Visibility: 10 mile(s):0
Sky conditions: clear
Temperature: 19 F (-7 C)
Windchill: 6 F (-14 C):1
Dew Point: 5 F (-15 C)
Relative Humidity: 52%
Pressure (altimeter): 30.53 in. Hg (1033 hPa)
ob: KPHT 261455Z AUTO 04010KT 10SM CLR M07/M15 A3053 RMK A01
cycle: 15

Station Type Date Time Source
KPHT TAF UTC NOAA

Error!

Example: see airport list